Mount Jackson, Virginia
Current Conditions -  °F | °C
As of 10:55 AM on Friday 31 Oct 2014 (Local Time) from K8W2 Reporting Station
Overcast Overcast  
Wind Chill: 43°   Ceiling: 4800
Heat Index: 43°   Visibility: 10mi
Dew Point: 37°   Wind: 0mph
Humidity: 81%   Direction: NA
Pressure: 29.96"   Gusts: NA
Location:  38.75°N, 78.64°W
Report Text: K8W2 311455Z AUTO 00000KT 10SM OVC048 06/03 A2996 RMK AO1 T00600030
Loading
Personal Weather Stations






























Interactive Weather Map New forecast layout! Learn more

10-Day Weather Forecast

Advertisements
Track Severe Weather on mobile